This is the latest recevied weather packets stored in our database for station/object MMMX. If no packets are shown the sender has not sent any weather packets the latest 1 day(s).
| Time | Temp. | Humidity | Pressure | Rain* | Wind** | Luminosity | Snow |
|---|---|---|---|---|---|---|---|
| 1778090022 | 27.78° C | 24% | 1025.4 hPa | - | - | - | - |
| 1778086428 | 26.67° C | 30% | 1026.4 hPa | - | - | - | - |
| 1778085824 | 26.67° C | 30% | 1026.4 hPa | - | - | - | - |
| 1778079223 | 20° C | 49% | 1026.4 hPa | - | - | - | - |
| 1778077420 | 20° C | 49% | 1026.4 hPa | - | - | - | - |
| 1778076222 | 20° C | 49% | 1026.4 hPa | - | - | - | - |
| 1778075622 | 15.56° C | 63% | 1026.1 hPa | - | - | - | - |
| 1778075021 | 15.56° C | 63% | 1026.1 hPa | - | - | - | - |
| 1778074419 | 15.56° C | 63% | 1026.1 hPa | - | - | - | - |
| 1778073821 | 15.56° C | 63% | 1026.1 hPa | - | - | - | - |
| 1778070821 | 15° C | 67% | 1025.7 hPa | - | - | - | - |
| 1778069622 | 15° C | 67% | 1025.7 hPa | - | - | - | - |
| 1778069022 | 15° C | 67% | 1025.7 hPa | - | - | - | - |
| 1778068423 | 15° C | 67% | 1025.7 hPa | - | - | - | - |
| 1778064822 | 15.56° C | 59% | 1025.4 hPa | - | - | - | - |
| 1778063622 | 15.56° C | 59% | 1025.4 hPa | - | - | - | - |
| 1778062423 | 15.56° C | 59% | 1025.4 hPa | - | - | - | - |
| 1778061225 | 16.67° C | 59% | 1025.7 hPa | - | - | - | - |
| 1778060024 | 16.67° C | 59% | 1025.7 hPa | - | - | - | - |
| 1778058823 | 16.67° C | 59% | 1025.7 hPa | - | - | - | - |
| 1778057625 | 16.67° C | 63% | 1026.4 hPa | - | - | - | - |
| 1778056423 | 16.67° C | 63% | 1026.4 hPa | - | - | - | - |
| 1778055220 | 16.67° C | 63% | 1026.4 hPa | - | - | - | - |
| 1778054621 | 16.67° C | 63% | 1026.4 hPa | - | - | - | - |
| 1778053423 | 18.89° C | 48% | 1027.1 hPa | - | - | - | - |
* Rain since midnight (hover to see other rain measurements)
** Current wind speed in m/s (hover to see current wind gust speed)